Jaipur, India

3:29 AM IST on August 30, 2014 (GMT +0530)
Jaipur | Change Station
CLOSE
Current Station
Airport
Location: Jaipur,
Elevation: 1280 ft
Nearby Weather Stations

Elev 1280 ft 26.82 °N, 75.81 °E | Updated 29 minutes ago

Haze
Haze
82 °F
Feels Like 90 °F
N
2
Wind Variable Wind from Variable

Today
High -- | Low -- °F
--% Chance of Precip.
Yesterday
High -- | Low -- °F
Precip. -- in
6:05 AM 6:49 PM
Waxing Crescent, 17% visible
Pressure 29.71 in
Visibility 1.9 miles
Clouds Few 3000 ft
Scattered Clouds 10000 ft
Heat Index 90 °F
Dew Point 75 °F
Humidity 79%
Rainfall 0.00 in
Snow Depth Not available.
UV 0 out of 12
Pollen Not available.
Air Quality Not available.
Flu Activity Not available.
METAR VIJP 292130Z VRB02KT 3000 HZ FEW030 SCT100 28/24 Q1006 NOSIG

More Conditions Fewer Conditions

Pressure 29.71 in
Visibility 1.9 miles
Clouds Few 3000 ft
Scattered Clouds 10000 ft
Heat Index 90 °F
Dew Point 75 °F
Humidity 79%
Rainfall 0.00 in
Snow Depth Not available.
UV 0 out of 12
Pollen Not available.
Air Quality Not available.
Flu Activity Not available.
METAR VIJP 292130Z VRB02KT 3000 HZ FEW030 SCT100 28/24 Q1006 NOSIG

More Conditions Fewer Conditions

10-Day Weather Forecast

Almanac

Astronomy

Aug. 30, 2014 Rise Set
Actual Time 6:05 AM IST 6:49 PM IST
Civil Twilight 5:41 AM IST 7:13 PM IST
Nautical Twilight 5:13 AM IST 7:40 PM IST
Astronomical Twilight 4:45 AM IST 8:09 PM IST
Moon 9:58 AM IST (8/30) 9:35 PM IST (8/30)
Length of Visible Light 13h 31m
Length of Day
12h 44m
Tomorrow will be 1m 30s shorter.
Waxing Crescent, 17% of the Moon is Illuminated
Aug 29
Waxing Crescent
Sep 2
First Quarter
Sep 8
Full
Sep 15
Last Quarter
Sep 24
New

Yesterday's Extremes

Country Highs Country Lows

Community

WunderPhotos

Upload Photos

1,748,349 photos uploaded!

Nearby

Snow Depth

Not available.

Earthquake Activity

City Distance Mag. Time & Date
No recent earthquake activity has been reported nearby.
Minimum magnitude displayed is 2.5.

Coastal Water Temperatures

Place Temperature
No Stations Reporting

Nearby Weather Stations